createdAt,value
2018-04-30T00:00:15.795Z,18.00
2018-04-30T00:02:44.416Z,18.00
2018-04-30T00:05:12.198Z,18.00
2018-04-30T00:07:39.944Z,18.00
2018-04-30T00:10:07.779Z,18.00
2018-04-30T00:12:36.341Z,17.90
2018-04-30T00:15:04.205Z,17.90
2018-04-30T00:17:32.018Z,17.90
2018-04-30T00:19:59.772Z,17.90
2018-04-30T00:22:27.578Z,17.90
2018-04-30T00:24:55.433Z,17.90
2018-04-30T00:27:23.241Z,17.90
2018-04-30T00:29:51.095Z,17.90
2018-04-30T00:32:18.974Z,17.90
2018-04-30T00:34:46.718Z,18.00
2018-04-30T00:37:15.219Z,18.00
2018-04-30T00:39:43.056Z,18.10
2018-04-30T00:42:11.560Z,18.10
2018-04-30T00:44:41.219Z,18.00
2018-04-30T00:47:09.097Z,18.00
2018-04-30T00:49:36.870Z,18.00
2018-04-30T00:52:05.428Z,18.00
2018-04-30T00:54:45.119Z,18.00
2018-04-30T00:57:12.937Z,18.00
2018-04-30T00:59:40.741Z,18.00
2018-04-30T01:02:09.983Z,18.10
2018-04-30T01:04:38.531Z,18.00
2018-04-30T01:07:06.290Z,18.10
2018-04-30T01:09:34.928Z,18.00
2018-04-30T01:12:10.917Z,18.00
2018-04-30T01:14:41.163Z,18.00
2018-04-30T01:17:08.951Z,18.00
2018-04-30T01:19:36.740Z,18.00
2018-04-30T01:22:05.294Z,18.00
2018-04-30T01:24:33.068Z,17.90
2018-04-30T01:27:00.824Z,17.90
2018-04-30T01:29:28.634Z,17.90
2018-04-30T01:31:58.299Z,17.90
2018-04-30T01:34:26.043Z,17.70
2018-04-30T01:36:53.843Z,17.70
2018-04-30T01:39:22.355Z,17.50
2018-04-30T01:41:50.104Z,17.50
2018-04-30T01:44:17.937Z,17.50
2018-04-30T01:46:50.149Z,17.50
2018-04-30T01:49:17.956Z,17.50
2018-04-30T01:51:45.751Z,17.50
2018-04-30T01:54:13.519Z,17.50
2018-04-30T01:56:41.357Z,17.50
2018-04-30T01:59:09.855Z,17.50
2018-04-30T02:01:37.630Z,17.50
2018-04-30T02:04:05.435Z,17.50
2018-04-30T02:06:33.947Z,17.40
2018-04-30T02:09:02.467Z,17.40
2018-04-30T02:11:30.364Z,17.40
2018-04-30T02:13:58.112Z,17.40
2018-04-30T02:16:25.852Z,17.50
2018-04-30T02:18:53.639Z,17.50
2018-04-30T02:21:21.384Z,17.50
2018-04-30T02:23:49.900Z,17.50
2018-04-30T02:26:17.683Z,17.50
2018-04-30T02:28:46.171Z,17.50
2018-04-30T02:31:13.911Z,17.50
2018-04-30T02:33:41.789Z,17.50
2018-04-30T02:36:09.524Z,17.50
2018-04-30T02:38:37.279Z,17.50
2018-04-30T02:41:05.150Z,17.50
2018-04-30T02:43:32.900Z,17.40
2018-04-30T02:46:00.639Z,17.40
2018-04-30T02:48:28.443Z,17.40
2018-04-30T02:50:56.211Z,17.40
2018-04-30T02:53:24.731Z,17.20
2018-04-30T02:55:52.516Z,17.20
2018-04-30T02:58:20.263Z,17.20
2018-04-30T03:00:48.008Z,17.20
2018-04-30T03:03:15.797Z,17.20
2018-04-30T03:05:43.575Z,17.20
2018-04-30T03:08:11.329Z,17.10
2018-04-30T03:10:39.133Z,17.10
2018-04-30T03:13:07.664Z,17.10
2018-04-30T03:15:35.413Z,17.10
2018-04-30T03:18:03.195Z,17.10
2018-04-30T03:20:30.963Z,17.10
2018-04-30T03:22:58.707Z,17.10
2018-04-30T03:25:26.507Z,17.00
2018-04-30T03:27:54.246Z,17.00
2018-04-30T03:30:21.988Z,16.90
2018-04-30T03:32:49.788Z,16.90
2018-04-30T03:35:17.537Z,16.90
2018-04-30T03:37:45.287Z,16.80
2018-04-30T03:40:13.131Z,16.90
2018-04-30T03:42:40.890Z,16.90
2018-04-30T03:45:08.637Z,16.90
2018-04-30T03:47:36.446Z,17.00
2018-04-30T03:50:04.217Z,17.00
2018-04-30T03:52:31.963Z,17.00
2018-04-30T03:54:59.777Z,17.10
2018-04-30T03:57:27.515Z,17.20
2018-04-30T03:59:56.044Z,17.30
2018-04-30T04:02:35.749Z,17.30
2018-04-30T04:05:16.094Z,17.40
2018-04-30T04:07:44.736Z,17.50
2018-04-30T04:10:12.485Z,17.50
2018-04-30T04:12:40.336Z,17.60
2018-04-30T04:15:08.860Z,17.90
2018-04-30T04:17:36.607Z,17.90
2018-04-30T04:20:05.174Z,18.20
2018-04-30T04:22:32.961Z,18.10
2018-04-30T04:25:00.706Z,18.30
2018-04-30T04:27:28.432Z,18.40
2018-04-30T04:29:56.258Z,18.60
2018-04-30T04:32:23.996Z,18.60
2018-04-30T04:34:51.741Z,18.70
2018-04-30T04:37:19.572Z,18.80
2018-04-30T04:39:48.076Z,19.20
2018-04-30T04:42:15.827Z,19.10
2018-04-30T04:44:44.196Z,19.30
2018-04-30T04:47:12.268Z,19.40
2018-04-30T04:49:40.039Z,19.60
2018-04-30T04:52:07.819Z,19.70
2018-04-30T04:54:35.560Z,19.80
2018-04-30T04:57:03.329Z,20.00
2018-04-30T04:59:31.126Z,20.20
2018-04-30T05:01:58.862Z,20.40
2018-04-30T05:04:26.597Z,20.50
2018-04-30T05:06:54.387Z,20.70
2018-04-30T05:09:22.138Z,20.80
2018-04-30T05:11:49.896Z,20.90
2018-04-30T05:14:17.678Z,21.00
2018-04-30T05:16:45.458Z,21.10
2018-04-30T05:19:13.243Z,21.30
2018-04-30T05:21:41.766Z,21.70
2018-04-30T05:24:09.542Z,21.90
2018-04-30T05:26:37.286Z,22.00
2018-04-30T05:29:05.096Z,22.50
2018-04-30T05:31:32.886Z,23.10
2018-04-30T05:34:01.406Z,24.50
2018-04-30T05:36:29.209Z,24.50
2018-04-30T05:38:57.727Z,26.20
2018-04-30T05:41:25.512Z,26.20
2018-04-30T05:43:53.306Z,27.00
2018-04-30T05:46:21.068Z,27.90
2018-04-30T05:48:48.829Z,28.50
2018-04-30T05:51:16.616Z,29.20
2018-04-30T05:53:45.128Z,30.80
2018-04-30T05:56:12.873Z,30.70
2018-04-30T05:58:40.729Z,30.20
2018-04-30T06:01:09.270Z,30.60
2018-04-30T06:03:37.044Z,30.60
2018-04-30T06:06:04.871Z,30.60
2018-04-30T06:08:33.402Z,31.90
2018-04-30T06:11:01.923Z,31.60
2018-04-30T06:13:29.721Z,31.60
2018-04-30T06:15:57.456Z,32.10
2018-04-30T06:18:25.212Z,31.70
2018-04-30T06:20:53.007Z,31.70
2018-04-30T06:23:20.752Z,32.60
2018-04-30T06:25:48.496Z,32.90
2018-04-30T06:28:16.310Z,33.80
2018-04-30T06:30:44.884Z,33.80
2018-04-30T06:33:12.645Z,33.80
2018-04-30T06:35:40.441Z,34.20
2018-04-30T06:38:08.231Z,33.80
2018-04-30T06:40:35.968Z,34.00
2018-04-30T06:43:03.842Z,33.60
2018-04-30T06:45:31.621Z,34.10
2018-04-30T06:47:59.356Z,34.40
2018-04-30T06:50:27.174Z,34.20
2018-04-30T06:52:54.984Z,34.50
2018-04-30T06:55:22.709Z,35.40
2018-04-30T06:57:50.510Z,35.40
2018-04-30T07:00:18.275Z,34.90
2018-04-30T07:02:46.023Z,34.80
2018-04-30T07:05:13.841Z,35.10
2018-04-30T07:07:41.616Z,35.60
2018-04-30T07:10:09.354Z,36.40
2018-04-30T07:12:37.923Z,36.40
2018-04-30T07:15:05.728Z,36.40
2018-04-30T07:17:33.476Z,35.70
2018-04-30T07:20:01.272Z,35.60
2018-04-30T07:22:29.028Z,34.90
2018-04-30T07:24:56.778Z,35.20
2018-04-30T07:27:25.334Z,36.10
2018-04-30T07:29:53.841Z,36.80
2018-04-30T07:32:22.353Z,37.10
2018-04-30T07:34:50.300Z,37.10
2018-04-30T07:37:18.074Z,37.40
2018-04-30T07:39:45.954Z,38.40
2018-04-30T07:42:15.141Z,39.50
2018-04-30T07:44:43.044Z,39.80
2018-04-30T07:47:10.784Z,39.40
2018-04-30T07:49:38.629Z,39.40
2018-04-30T07:52:06.394Z,39.70
2018-04-30T07:54:34.276Z,39.60
2018-04-30T07:57:27.519Z,39.90
2018-04-30T07:59:55.251Z,40.70
2018-04-30T08:02:23.171Z,40.40
2018-04-30T08:04:51.028Z,40.20
2018-04-30T08:07:18.871Z,39.60
2018-04-30T08:09:46.624Z,39.50
2018-04-30T08:12:14.559Z,39.90
2018-04-30T08:14:42.395Z,41.00
2018-04-30T08:17:10.195Z,41.50
2018-04-30T08:19:38.842Z,40.80
2018-04-30T08:22:06.655Z,40.80
2018-04-30T08:24:34.431Z,40.20
2018-04-30T08:27:02.295Z,39.90
2018-04-30T08:29:30.027Z,41.10
2018-04-30T08:31:58.557Z,39.80
2018-04-30T08:34:26.396Z,39.80
2018-04-30T08:36:54.167Z,39.10
2018-04-30T08:39:21.912Z,38.90
2018-04-30T08:41:49.734Z,39.00
2018-04-30T08:44:17.483Z,38.90
2018-04-30T08:46:45.235Z,38.70
2018-04-30T08:49:13.798Z,38.00
2018-04-30T08:51:41.524Z,37.90
2018-04-30T08:54:10.050Z,38.20
2018-04-30T08:56:37.843Z,38.30
2018-04-30T08:59:05.604Z,37.80
2018-04-30T09:01:33.345Z,38.30
2018-04-30T09:04:01.916Z,37.00
2018-04-30T09:06:29.647Z,37.00
2018-04-30T09:08:57.382Z,37.80
2018-04-30T09:11:25.947Z,38.90
2018-04-30T09:13:53.694Z,38.80
2018-04-30T09:16:21.465Z,38.30
2018-04-30T09:18:49.260Z,37.70
2018-04-30T09:21:17.758Z,36.70
2018-04-30T09:23:45.531Z,36.70
2018-04-30T09:26:14.027Z,34.80
2018-04-30T09:28:41.783Z,33.20
2018-04-30T09:31:09.530Z,32.20
2018-04-30T09:33:37.329Z,31.20
2018-04-30T09:36:05.081Z,30.40
2018-04-30T09:38:32.840Z,30.30
2018-04-30T09:41:00.644Z,30.00
2018-04-30T09:43:29.157Z,29.90
2018-04-30T09:45:56.933Z,29.90
2018-04-30T09:48:24.723Z,29.80
2018-04-30T09:50:52.460Z,29.50
2018-04-30T09:53:20.216Z,29.40
2018-04-30T09:55:48.031Z,29.30
2018-04-30T09:58:16.554Z,29.40
2018-04-30T10:00:44.295Z,29.40
2018-04-30T10:03:12.094Z,29.30
2018-04-30T10:05:39.841Z,29.20
2018-04-30T10:08:07.573Z,29.30
2018-04-30T10:10:35.367Z,29.20
2018-04-30T10:13:03.103Z,29.00
2018-04-30T10:15:30.882Z,29.10
2018-04-30T10:17:58.689Z,29.10
2018-04-30T10:20:26.482Z,29.30
2018-04-30T10:22:54.263Z,29.30
2018-04-30T10:25:22.074Z,29.30
2018-04-30T10:27:49.816Z,29.40
2018-04-30T10:30:17.552Z,29.20
2018-04-30T10:32:45.323Z,29.30
2018-04-30T10:35:13.085Z,29.00
2018-04-30T10:37:40.826Z,28.90
2018-04-30T10:40:08.654Z,29.00
2018-04-30T10:42:36.400Z,29.30
2018-04-30T10:45:04.197Z,29.30
2018-04-30T10:47:32.743Z,29.30
2018-04-30T10:50:00.481Z,29.30
2018-04-30T10:52:28.221Z,29.30
2018-04-30T10:54:56.022Z,29.30
2018-04-30T10:57:23.820Z,29.20
2018-04-30T10:59:52.369Z,29.40
2018-04-30T11:02:20.168Z,29.40
2018-04-30T11:04:48.666Z,29.80
2018-04-30T11:07:16.428Z,29.80
2018-04-30T11:09:44.218Z,29.70
2018-04-30T11:12:11.977Z,29.50
2018-04-30T11:14:39.741Z,29.50
2018-04-30T11:17:07.554Z,29.50
2018-04-30T11:19:35.372Z,29.50
2018-04-30T11:22:03.144Z,29.60
2018-04-30T11:24:30.931Z,29.70
2018-04-30T11:26:58.732Z,29.80
2018-04-30T11:29:26.481Z,29.90
2018-04-30T11:31:54.327Z,30.10
2018-04-30T11:34:22.910Z,30.20
2018-04-30T11:36:50.688Z,30.20
2018-04-30T11:39:18.546Z,30.10
2018-04-30T11:41:46.308Z,30.20
2018-04-30T11:44:14.069Z,30.50
2018-04-30T11:46:41.906Z,30.80
2018-04-30T11:49:10.455Z,31.20
2018-04-30T11:51:38.204Z,31.20
2018-04-30T11:54:06.044Z,31.20
2018-04-30T11:56:33.796Z,31.30
2018-04-30T11:59:01.595Z,31.50
2018-04-30T12:01:29.407Z,31.50
2018-04-30T12:03:57.952Z,30.90
2018-04-30T12:06:25.720Z,30.90
2018-04-30T12:08:54.307Z,31.00
2018-04-30T12:11:22.100Z,31.00
2018-04-30T12:13:49.840Z,31.20
2018-04-30T12:16:18.520Z,31.20
2018-04-30T12:18:47.046Z,31.30
2018-04-30T12:21:14.809Z,31.30
2018-04-30T12:23:42.741Z,31.70
2018-04-30T12:26:10.611Z,31.80
2018-04-30T12:28:38.389Z,31.70
2018-04-30T12:31:06.295Z,32.00
2018-04-30T12:33:34.146Z,32.20
2018-04-30T12:36:02.701Z,32.40
2018-04-30T12:38:30.479Z,32.40
2018-04-30T12:40:58.218Z,32.50
2018-04-30T12:43:25.983Z,32.30
2018-04-30T12:45:53.800Z,32.40
2018-04-30T12:48:21.549Z,32.40
2018-04-30T12:50:49.332Z,32.20
2018-04-30T12:53:17.121Z,31.90
2018-04-30T12:55:45.634Z,31.50
2018-04-30T12:58:13.396Z,31.50
2018-04-30T13:00:41.246Z,31.30
2018-04-30T13:03:09.056Z,31.30
2018-04-30T13:05:36.812Z,31.10
2018-04-30T13:08:04.635Z,30.80
2018-04-30T13:10:32.412Z,30.60
2018-04-30T13:13:00.174Z,30.40
2018-04-30T13:15:28.008Z,30.30
2018-04-30T13:17:55.777Z,30.20
2018-04-30T13:20:23.545Z,30.40
2018-04-30T13:22:51.412Z,30.60
2018-04-30T13:25:19.175Z,30.70
2018-04-30T13:27:46.960Z,30.70
2018-04-30T13:30:14.993Z,30.70
2018-04-30T13:32:42.819Z,30.60
2018-04-30T13:35:10.562Z,30.60
2018-04-30T13:37:38.375Z,30.60
2018-04-30T13:40:06.104Z,30.70
2018-04-30T13:42:33.833Z,30.70
2018-04-30T13:45:01.629Z,30.60
2018-04-30T13:47:29.391Z,30.50
2018-04-30T13:49:57.135Z,30.40
2018-04-30T13:52:24.979Z,30.00
2018-04-30T13:54:52.726Z,29.80
2018-04-30T13:57:20.477Z,29.30
2018-04-30T13:59:48.350Z,28.90
2018-04-30T14:02:16.091Z,28.60
2018-04-30T14:04:43.921Z,28.00
2018-04-30T14:07:11.719Z,27.60
2018-04-30T14:09:39.496Z,27.00
2018-04-30T14:12:07.275Z,26.70
2018-04-30T14:14:35.083Z,26.60
2018-04-30T14:17:02.885Z,26.50
2018-04-30T14:19:30.618Z,26.70
2018-04-30T14:21:59.203Z,27.20
2018-04-30T14:24:27.691Z,27.30
2018-04-30T14:26:56.193Z,27.20
2018-04-30T14:29:23.990Z,27.20
2018-04-30T14:31:51.729Z,26.90
2018-04-30T14:34:19.465Z,26.70
2018-04-30T14:36:47.280Z,26.70
2018-04-30T14:39:15.024Z,26.70
2018-04-30T14:41:42.829Z,26.90
2018-04-30T14:44:11.399Z,26.90
2018-04-30T14:46:39.165Z,26.90
2018-04-30T14:49:06.916Z,26.90
2018-04-30T14:51:34.704Z,26.90
2018-04-30T14:54:03.209Z,26.60
2018-04-30T14:56:31.298Z,26.60
2018-04-30T14:59:05.715Z,26.50
2018-04-30T15:01:33.455Z,26.30
2018-04-30T15:04:01.190Z,26.00
2018-04-30T15:06:29.027Z,26.10
2018-04-30T15:08:56.768Z,26.10
2018-04-30T15:11:26.880Z,26.00
2018-04-30T15:13:55.876Z,25.80
2018-04-30T15:16:23.701Z,25.60
2018-04-30T15:18:51.454Z,25.30
2018-04-30T15:21:20.026Z,24.50
2018-04-30T15:23:48.528Z,24.40
2018-04-30T15:26:16.256Z,24.30
2018-04-30T15:28:44.041Z,24.30
2018-04-30T15:31:12.782Z,23.90
2018-04-30T15:33:40.539Z,23.90
2018-04-30T15:36:08.379Z,23.80
2018-04-30T15:38:36.151Z,23.60
2018-04-30T15:41:03.933Z,23.40
2018-04-30T15:43:32.515Z,23.10
2018-04-30T15:46:00.386Z,23.10
2018-04-30T15:48:28.213Z,23.20
2018-04-30T15:50:56.080Z,23.20
2018-04-30T15:53:23.819Z,23.00
2018-04-30T15:55:51.570Z,22.80
2018-04-30T15:58:20.120Z,22.00
2018-04-30T16:00:47.859Z,22.00
2018-04-30T16:03:15.621Z,21.10
2018-04-30T16:05:43.500Z,20.50
2018-04-30T16:08:11.243Z,20.20
2018-04-30T16:10:38.977Z,20.20
2018-04-30T16:13:06.755Z,20.30
2018-04-30T16:15:34.495Z,20.50
2018-04-30T16:18:02.343Z,20.90
2018-04-30T16:20:30.976Z,21.30
2018-04-30T16:22:58.818Z,21.30
2018-04-30T16:25:26.562Z,21.50
2018-04-30T16:27:54.391Z,21.60
2018-04-30T16:30:22.128Z,21.70
2018-04-30T16:32:49.844Z,21.80
2018-04-30T16:35:18.402Z,22.00
2018-04-30T16:37:46.912Z,22.10
2018-04-30T16:40:14.762Z,22.00
2018-04-30T16:42:43.473Z,22.10
2018-04-30T16:45:11.215Z,22.00
2018-04-30T16:47:38.955Z,22.10
2018-04-30T16:50:07.552Z,22.30
2018-04-30T16:52:36.071Z,22.20
2018-04-30T16:55:03.887Z,22.20
2018-04-30T16:57:32.476Z,22.10
2018-04-30T17:00:00.985Z,22.00
2018-04-30T17:02:28.759Z,22.00
2018-04-30T17:04:56.536Z,22.00
2018-04-30T17:07:24.280Z,21.90
2018-04-30T17:09:52.108Z,21.90
2018-04-30T17:12:20.167Z,21.90
2018-04-30T17:14:48.278Z,22.00
2018-04-30T17:17:16.036Z,22.00
2018-04-30T17:19:43.887Z,22.00
2018-04-30T17:22:11.742Z,21.90
2018-04-30T17:24:39.519Z,21.90
2018-04-30T17:27:07.330Z,21.80
2018-04-30T17:29:35.167Z,21.80
2018-04-30T17:32:02.994Z,21.70
2018-04-30T17:34:30.919Z,21.60
2018-04-30T17:36:58.787Z,21.60
2018-04-30T17:39:26.600Z,21.50
2018-04-30T17:41:54.482Z,21.30
2018-04-30T17:44:22.226Z,21.30
2018-04-30T17:46:50.139Z,21.20
2018-04-30T17:49:18.001Z,21.10
2018-04-30T17:51:45.860Z,21.00
2018-04-30T17:54:13.764Z,20.90
2018-04-30T17:56:42.950Z,20.80
2018-04-30T17:59:11.571Z,20.60
2018-04-30T18:01:39.424Z,20.60
2018-04-30T18:04:07.227Z,20.50
2018-04-30T18:06:35.029Z,20.70
2018-04-30T18:09:02.788Z,20.60
2018-04-30T18:11:31.352Z,20.20
2018-04-30T18:13:59.930Z,20.00
2018-04-30T18:16:28.449Z,19.90
2018-04-30T18:18:56.259Z,19.90
2018-04-30T18:21:24.036Z,19.80
2018-04-30T18:23:52.576Z,19.60
2018-04-30T18:26:20.428Z,19.50
2018-04-30T18:28:48.187Z,19.50
2018-04-30T18:31:16.003Z,19.30
2018-04-30T18:33:44.622Z,19.10
2018-04-30T18:36:12.381Z,19.10
2018-04-30T18:38:40.182Z,19.00
2018-04-30T18:41:08.080Z,19.00
2018-04-30T18:43:35.920Z,18.90
2018-04-30T18:46:04.523Z,18.70
2018-04-30T18:48:32.351Z,18.70
2018-04-30T18:51:00.116Z,18.60
2018-04-30T18:53:27.927Z,18.50
2018-04-30T18:55:55.780Z,18.50
2018-04-30T18:58:23.649Z,18.40
2018-04-30T19:00:51.440Z,18.20
2018-04-30T19:03:19.372Z,18.10
2018-04-30T19:05:47.196Z,18.00
2018-04-30T19:08:14.965Z,17.90
2018-04-30T19:10:42.899Z,18.00
2018-04-30T19:13:10.719Z,17.90
2018-04-30T19:15:39.301Z,18.10
2018-04-30T19:18:08.768Z,18.10
2018-04-30T19:20:36.556Z,18.10
2018-04-30T19:23:05.163Z,18.00
2018-04-30T19:25:32.998Z,18.00
2018-04-30T19:28:00.751Z,18.00
2018-04-30T19:30:28.513Z,17.90
2018-04-30T19:32:56.376Z,17.80
2018-04-30T19:35:24.215Z,17.80
2018-04-30T19:37:52.008Z,17.70
2018-04-30T19:40:19.879Z,17.60
2018-04-30T19:42:47.603Z,17.50
2018-04-30T19:45:16.122Z,17.40
2018-04-30T19:47:43.952Z,17.40
2018-04-30T19:50:11.848Z,17.40
2018-04-30T19:52:40.378Z,17.20
2018-04-30T19:55:08.294Z,17.20
2018-04-30T19:57:36.904Z,17.30
2018-04-30T20:00:04.740Z,17.20
2018-04-30T20:02:34.274Z,17.20
2018-04-30T20:05:02.124Z,17.20
2018-04-30T20:07:29.941Z,17.20
2018-04-30T20:09:57.951Z,17.30
2018-04-30T20:12:25.747Z,17.40
2018-04-30T20:14:53.483Z,17.40
2018-04-30T20:17:21.307Z,17.20
2018-04-30T20:19:49.072Z,17.10
2018-04-30T20:22:16.799Z,16.90
2018-04-30T20:24:44.634Z,16.90
2018-04-30T20:27:12.445Z,16.80
2018-04-30T20:29:40.241Z,16.70
2018-04-30T20:32:08.861Z,16.70
2018-04-30T20:34:36.726Z,16.60
2018-04-30T20:37:04.492Z,16.60
2018-04-30T20:39:32.422Z,16.60
2018-04-30T20:42:01.930Z,16.50
2018-04-30T20:44:30.908Z,16.50
2018-04-30T20:46:59.482Z,16.40
2018-04-30T20:49:27.264Z,16.30
2018-04-30T20:51:55.819Z,16.10
2018-04-30T20:54:23.638Z,16.10
2018-04-30T20:56:51.424Z,16.10
2018-04-30T20:59:19.209Z,16.00
2018-04-30T21:01:47.013Z,16.00
2018-04-30T21:04:14.808Z,16.00
2018-04-30T21:06:42.571Z,16.10
2018-04-30T21:09:13.395Z,16.00
2018-04-30T21:11:41.172Z,15.90
2018-04-30T21:14:08.926Z,15.90
2018-04-30T21:16:36.747Z,15.80
2018-04-30T21:19:04.523Z,15.90
2018-04-30T21:21:32.263Z,15.90
2018-04-30T21:24:00.813Z,16.00
2018-04-30T21:26:28.576Z,16.00
2018-04-30T21:28:56.335Z,16.10
2018-04-30T21:31:24.136Z,16.10
2018-04-30T21:33:52.649Z,16.20
2018-04-30T21:36:20.428Z,16.20
2018-04-30T21:38:48.275Z,16.30
2018-04-30T21:41:16.034Z,16.40
2018-04-30T21:43:43.809Z,16.40
2018-04-30T21:46:11.737Z,16.50
2018-04-30T21:48:39.519Z,16.50
2018-04-30T21:51:07.292Z,16.50
2018-04-30T21:53:35.082Z,16.40
2018-04-30T21:56:04.310Z,16.40
2018-04-30T21:58:32.143Z,16.30
2018-04-30T22:01:00.060Z,16.30
2018-04-30T22:03:27.935Z,16.20
2018-04-30T22:05:56.248Z,16.20
2018-04-30T22:08:24.813Z,16.00
2018-04-30T22:10:52.571Z,16.00
2018-04-30T22:13:20.312Z,15.90
2018-04-30T22:15:48.152Z,15.80
2018-04-30T22:18:15.927Z,15.80
2018-04-30T22:20:43.770Z,15.80
2018-04-30T22:23:12.356Z,15.70
2018-04-30T22:25:40.174Z,15.70
2018-04-30T22:28:07.941Z,15.60
2018-04-30T22:30:35.780Z,15.70
2018-04-30T22:33:03.564Z,15.80
2018-04-30T22:35:31.308Z,15.90
2018-04-30T22:37:59.153Z,15.80
2018-04-30T22:40:26.917Z,15.80
2018-04-30T22:42:54.684Z,15.80
2018-04-30T22:45:22.502Z,15.80
2018-04-30T22:47:51.011Z,15.80
2018-04-30T22:50:18.769Z,15.80
2018-04-30T22:52:46.568Z,15.80
2018-04-30T22:55:14.395Z,15.80
2018-04-30T22:57:42.162Z,15.80
2018-04-30T23:00:09.971Z,15.70
2018-04-30T23:02:37.744Z,15.70
2018-04-30T23:05:06.298Z,15.50
2018-04-30T23:07:34.108Z,15.50
2018-04-30T23:10:01.879Z,15.50
2018-04-30T23:12:29.663Z,15.40
2018-04-30T23:14:57.495Z,15.40
2018-04-30T23:17:26.666Z,15.20
2018-04-30T23:19:54.451Z,15.20
2018-04-30T23:22:22.337Z,15.10
2018-04-30T23:24:50.100Z,15.00
2018-04-30T23:27:17.847Z,14.90
2018-04-30T23:29:45.637Z,14.80
2018-04-30T23:32:13.787Z,14.80
2018-04-30T23:34:41.609Z,14.90
2018-04-30T23:37:09.393Z,14.90
2018-04-30T23:39:37.891Z,14.80
2018-04-30T23:42:05.687Z,14.80
2018-04-30T23:44:33.678Z,14.80
2018-04-30T23:47:01.428Z,14.70
2018-04-30T23:49:29.211Z,14.60
2018-04-30T23:51:57.047Z,14.30
2018-04-30T23:54:24.796Z,14.20
2018-04-30T23:56:52.592Z,14.00
2018-04-30T23:59:20.421Z,13.90
